Relevés horaires St-Hubert (Belgique)


Relevés horaires à St-Hubert - Mercredi 21 Juill. 2021
Heure UTC1 Température [°C] Vent [km/h] Hum. [%] Pres.4 [hPa] Visi. [Km] Nébu. [octa] Préc.5 [mm] Cond.
2m. Res. Ros. Dir.2 Vit. Moy. Raf.3
23:00 14.2 14 11.0 ENE 7.4 7.4 9.3 81 1023.7(0.2/3h) 21 0/8 -- --
22:00 14.6 14.6 11.2 NE 5.6 7.4 9.3 80 1023.7(0.4/3h) 24 0/8 -- --
21:00 15.8 15.8 11.0 NE 7.4 7.4 11.1 73 1023.4(0.5/3h) 23 0/8 -- --
20:00 17.3 17.3 11.1 NNE 5.6 7.4 9.3 67 1022.8(0.4/3h) 30 0/8 -- --
19:00 19.0 19.0 11.8 N 5.6 5.6 11.1 63 1022.2(-0.1/3h) 29 0/8 -- --
18:00 20.5 20.5 11.6 N 5.6 7.4 13.0 57 1021.7(0.1/3h) 24 0/8 0/12h
--
17:00 21.5 21.5 12.7 N 7.4 7.4 13.0 57 1021.4(-0.2/3h) 20 0/8 -- --
16:00 22.1 22.1 11.5 N 5.6 7.4 13.0 51 1021.4(0.1/3h) 22 0/8 -- --
15:00 22.0 22.0 12.1 NNO 7.4 7.4 13.0 53 1021.5(-0.2/3h) 25 0/8 -- --
14:00 22.4 22.4 11.1 N 5.6 7.4 13.0 49 1021.5(-0.3/3h) 25 0/8 -- --
13:00 21.8 21.8 11.9 NNO 5.6 5.6 11.1 53 1021.5(-0.4/3h) 20 6/8 -- --
12:00 21.6 21.6 12.8 N 3.7 7.4 9.3 57 1021.8(0.1/3h) 18 0/8 0/6h
--
11:00 20.2 20.2 10.6 NNO 1.9 3.7 7.4 54 1022.3(0.1/3h) 18 0/8 -- --
10:00 18.9 18.9 10.8 N 1.9 5.6 7.4 59 1022.7(0.4/3h) 17 0/8 -- --
09:00 17.8 17.8 11.0 N 3.7 7.4 9.3 64 1022.7(0.9/3h) 19 0/8 -- --
08:00 17.0 17.0 10.5 NNE 5.6 5.6 9.3 66 1022.9(1.1/3h) 13 0/8 -- --
07:00 14.9 14.9 11.1 NNE 1.9 3.7 5.6 78 1023.1(1.1/3h) 14 0/8 -- --
06:00 14.5 14.5 10.2 NNE 3.7 5.6 7.4 75 1022.6(0.7/3h) 15 0/8 0/12h
--
05:00 10.7 10.7 9.3 NE 1.9 3.7 3.7 91 1023.2(0.3/3h) -- 0/8 -- --
04:00 9.8 9.8 8.8 NE 3.7 3.7 5.6 93 1023.2(0.0/3h) -- 0/8 -- --
03:00 11.2 11.2 9.5 ENE 3.7 5.6 7.4 89 1022.6(-0.5/3h) -- 0/8 -- --
02:00 13.1 13.1 10.2 ENE 3.7 5.6 7.4 83 1022.2(-0.5/3h) 11 0/8 -- --
01:00 11.3 11.1 10.2 ENE 5.6 5.6 7.4 93 1022.8(0.0/3h) -- 0/8 -- --
00:00 12.1 12 10.8 ENE 5.6 5.6 9.3 92 1022.9(0.3/3h) -- 0/8 0/6h
0/24h
--

1 Coordinated Universal Time. Actuellement il est 21:00 locale et 19:00 UTC.

2 Le vent souffle depuis la direction indiquée vers la direction oposée.

3 Les rafales max. sont disponible 40 min après l'heure du relevé.

4 Pour les stations d'altitude (plus de 600m) le géopotentiel du niveau le plus proche de la pression obligatoire est indiqué.

5 Les stations disposant d'un diffuseur peuvent indiquer "trace". Cela signifie que des précipitations ont touchés le sol mais que la quantité est inférieure à 0.1 mm.

Récapitulatif de la journée
Température [°C] Vent [km/h] Ensoleillement4 [h] Precipitations totale5 [mm] Pression [Hpa]
Min1 Max.2 Moy.3 Max. Min Max.
8.6 22.6 6.1 13.0 0 h 0 min 0 1021.4 1023.7

1 Température minimale relevée entre 18:00 UTC la veille et 18:00 UTC le jour donné.

2 Température maximale relevée entre 06:00 UTC le jour donné et 06:00 UTC le lendemain.

3 Vent moyen de la journée basé sur les relevés horaires.

4 Ensoleillement en heures relevé entre 06:00 UTC la veille et 06:00 UTC le jour donné.

5 Précipitations totales tombées entre 06:00 UTC la jour donné et 06:00 UTC le lendemain.

Graphiques horaires